If you wish to contribute or participate in the discussions about articles you are invited to join SKYbrary as a registered user

 Actions

Agen-La Garenne Airport

From SKYbrary Wiki

LFBA
Airport
ICAO: LFBA – IATA: AGF
Summary
Name Agen-La Garenne Airport
Region Europe
Territory France FR.gif
Location Agen, Aquitaine
Serving Agen
Elevation 62.179 m
204 ft
204 ft62.179 m
Type medium airport
Coordinates 44° 10' 29.00" N, 0° 35' 26.00" E
Runways
Designator Length Width Surface ROPS
11/29 2165 m7,103.018 ft
30 m98.425 ft
ASP /


METAR
Observation LFBA 151200Z AUTO 10009KT 6000 -RADZ FEW006 BKN027 OVC033 05/04 Q1020 TEMPO 4000 RA BKN005
Station Agen
Date/Time 15 December 2018 12:00:00
Wind direction 100°
Wind speed 09 kts
Lowest cloud amount few clouds
Temperature 5°C
Dew point 4°C
Humidity 93%
QNH 1020 hPa
Weather condition n/a

Maps

Terrain

Loading map...

Airport Layout

Loading map...


Accidents & Serious Incidents at or in vicinity of LFBA

None on SKYbrary